createdAt,value
2022-12-02T00:01:33.653Z,39.93
2022-12-02T00:04:01.970Z,41.58
2022-12-02T00:06:30.412Z,40.60
2022-12-02T00:09:17.729Z,38.25
2022-12-02T00:11:46.042Z,39.78
2022-12-02T00:14:27.338Z,39.47
2022-12-02T00:16:54.595Z,37.30
2022-12-02T00:19:22.041Z,39.88
2022-12-02T00:21:50.267Z,40.80
2022-12-02T00:24:17.876Z,40.90
2022-12-02T00:26:45.236Z,43.08
2022-12-02T00:29:12.460Z,43.33
2022-12-02T00:31:39.533Z,41.22
2022-12-02T00:34:06.693Z,37.65
2022-12-02T00:36:34.273Z,40.00
2022-12-02T00:39:01.173Z,36.65
2022-12-02T00:41:28.147Z,38.75
2022-12-02T00:44:13.471Z,35.90
2022-12-02T00:46:40.477Z,35.38
2022-12-02T00:49:09.912Z,38.05
2022-12-02T00:51:37.539Z,36.42
2022-12-02T00:54:05.411Z,39.47
2022-12-02T00:56:32.836Z,36.58
2022-12-02T00:59:00.540Z,38.00
2022-12-02T01:01:27.663Z,35.88
2022-12-02T01:03:54.712Z,33.88
2022-12-02T01:06:21.718Z,39.58
2022-12-02T01:08:49.160Z,36.53
2022-12-02T01:11:16.174Z,36.92
2022-12-02T01:13:43.388Z,34.35
2022-12-02T01:16:10.559Z,32.65
2022-12-02T01:18:37.752Z,32.72
2022-12-02T01:21:04.796Z,34.42
2022-12-02T01:23:31.904Z,34.67
2022-12-02T01:25:59.403Z,32.38
2022-12-02T01:28:26.302Z,33.72
2022-12-02T01:30:53.139Z,38.38
2022-12-02T01:33:20.118Z,36.63
2022-12-02T01:35:47.094Z,39.28
2022-12-02T01:38:14.225Z,39.05
2022-12-02T01:40:41.133Z,40.38
2022-12-02T01:43:08.124Z,39.47
2022-12-02T01:45:35.666Z,36.75
2022-12-02T01:48:03.276Z,35.30
2022-12-02T01:50:30.378Z,35.63
2022-12-02T01:52:58.583Z,36.47
2022-12-02T01:55:26.439Z,32.60
2022-12-02T01:57:53.510Z,34.25
2022-12-02T02:00:20.835Z,33.85
2022-12-02T02:02:47.898Z,33.08
2022-12-02T02:05:28.507Z,34.50
2022-12-02T02:07:57.441Z,34.38
2022-12-02T02:10:25.161Z,33.20
2022-12-02T02:12:52.443Z,32.78
2022-12-02T02:15:19.768Z,31.65
2022-12-02T02:17:46.856Z,32.67
2022-12-02T02:20:16.595Z,33.35
2022-12-02T02:22:47.272Z,30.88
2022-12-02T02:25:20.053Z,32.45
2022-12-02T02:27:55.530Z,31.15
2022-12-02T02:30:22.863Z,33.15
2022-12-02T02:32:50.108Z,34.40
2022-12-02T02:35:17.925Z,31.77
2022-12-02T02:37:44.928Z,28.38
2022-12-02T02:40:12.860Z,29.08
2022-12-02T02:42:40.437Z,31.70
2022-12-02T02:45:08.112Z,32.85
2022-12-02T02:47:35.738Z,32.33
2022-12-02T02:50:03.448Z,31.55
2022-12-02T02:52:30.538Z,32.80
2022-12-02T02:54:57.453Z,33.67
2022-12-02T02:57:24.386Z,32.70
2022-12-02T02:59:51.761Z,31.92
2022-12-02T03:02:18.706Z,30.40
2022-12-02T03:04:45.948Z,31.50
2022-12-02T03:07:13.442Z,30.42
2022-12-02T03:12:08.913Z,31.63
2022-12-02T03:14:35.997Z,32.53
2022-12-02T03:17:02.957Z,29.52
2022-12-02T03:19:30.987Z,31.67
2022-12-02T03:21:58.171Z,27.70
2022-12-02T03:24:25.271Z,28.08
2022-12-02T03:26:52.759Z,26.77
2022-12-02T03:29:20.421Z,27.42
2022-12-02T03:31:47.518Z,27.98
2022-12-02T03:34:14.486Z,29.52
2022-12-02T03:36:41.710Z,28.85
2022-12-02T03:39:08.637Z,30.27
2022-12-02T03:41:35.584Z,28.13
2022-12-02T03:44:02.574Z,29.67
2022-12-02T03:46:29.732Z,28.42
2022-12-02T03:48:57.126Z,27.70
2022-12-02T03:51:24.677Z,28.25
2022-12-02T03:53:51.608Z,28.90
2022-12-02T03:56:18.563Z,28.83
2022-12-02T03:58:50.781Z,28.00
2022-12-02T04:01:18.631Z,27.15
2022-12-02T04:03:45.642Z,28.15
2022-12-02T04:06:12.834Z,27.85
2022-12-02T04:08:40.014Z,28.20
2022-12-02T04:11:07.131Z,29.08
2022-12-02T04:13:34.250Z,29.60
2022-12-02T04:16:01.745Z,29.33
2022-12-02T04:18:29.215Z,27.52
2022-12-02T04:20:56.647Z,28.50
2022-12-02T04:23:23.649Z,28.55
2022-12-02T04:25:50.749Z,30.25
2022-12-02T04:28:17.801Z,30.80
2022-12-02T04:30:44.769Z,27.50
2022-12-02T04:33:11.707Z,28.67
2022-12-02T04:35:39.328Z,28.45
2022-12-02T04:38:11.785Z,25.70
2022-12-02T04:40:39.523Z,28.58
2022-12-02T04:43:06.858Z,26.55
2022-12-02T04:45:33.933Z,27.27
2022-12-02T04:48:00.882Z,25.67
2022-12-02T04:50:28.228Z,27.90
2022-12-02T04:52:55.190Z,28.45
2022-12-02T04:55:22.042Z,27.92
2022-12-02T04:57:49.489Z,28.48
2022-12-02T05:00:16.782Z,28.55
2022-12-02T05:02:43.877Z,27.42
2022-12-02T05:05:11.200Z,27.40
2022-12-02T05:07:39.381Z,27.45
2022-12-02T05:10:07.039Z,24.57
2022-12-02T05:12:33.974Z,25.52
2022-12-02T05:15:01.057Z,26.30
2022-12-02T05:17:28.072Z,26.23
2022-12-02T05:19:55.003Z,26.92
2022-12-02T05:22:21.975Z,30.80
2022-12-02T05:24:49.053Z,33.90
2022-12-02T05:27:16.596Z,29.98
2022-12-02T05:29:43.631Z,30.90
2022-12-02T05:32:12.113Z,28.63
2022-12-02T05:34:39.282Z,27.63
2022-12-02T05:37:06.892Z,26.83
2022-12-02T05:39:33.799Z,26.73
2022-12-02T05:42:02.010Z,26.15
2022-12-02T05:44:29.553Z,29.17
2022-12-02T05:47:02.501Z,34.97
2022-12-02T05:49:30.345Z,37.55
2022-12-02T05:51:58.699Z,30.15
2022-12-02T05:54:27.607Z,29.08
2022-12-02T05:56:55.641Z,27.38
2022-12-02T05:59:24.266Z,28.23
2022-12-02T06:01:55.185Z,29.65
2022-12-02T06:07:10.333Z,29.55
2022-12-02T06:09:40.504Z,27.40
2022-12-02T06:12:17.423Z,27.17
2022-12-02T06:14:49.232Z,28.67
2022-12-02T06:17:17.227Z,28.60
2022-12-02T06:19:45.891Z,26.13
2022-12-02T06:22:23.997Z,31.33
2022-12-02T06:24:51.602Z,30.97
2022-12-02T06:27:18.756Z,30.65
2022-12-02T06:32:58.153Z,30.05
2022-12-02T06:35:26.862Z,29.42
2022-12-02T06:38:00.431Z,52.17
2022-12-02T06:40:34.131Z,45.78
2022-12-02T06:43:02.061Z,35.60
2022-12-02T06:45:33.821Z,29.58
2022-12-02T06:48:01.779Z,29.65
2022-12-02T06:50:28.883Z,30.88
2022-12-02T06:53:21.561Z,30.40
2022-12-02T06:58:40.861Z,30.77
2022-12-02T07:06:26.131Z,30.45
2022-12-02T07:11:53.614Z,33.50
2022-12-02T07:20:42.265Z,37.45
2022-12-02T07:28:41.694Z,35.05
2022-12-02T07:31:20.905Z,30.83
2022-12-02T07:33:48.140Z,31.15
2022-12-02T07:36:17.726Z,33.85
2022-12-02T07:41:36.407Z,34.42
2022-12-02T07:44:04.891Z,43.83
2022-12-02T07:46:32.500Z,45.50
2022-12-02T07:49:00.219Z,39.40
2022-12-02T07:51:31.341Z,35.78
2022-12-02T07:54:01.495Z,37.42
2022-12-02T07:56:28.441Z,42.78
2022-12-02T07:59:12.777Z,39.20
2022-12-02T08:01:40.842Z,40.00
2022-12-02T08:06:43.932Z,40.50
2022-12-02T08:09:10.941Z,38.67
2022-12-02T08:11:37.883Z,42.17
2022-12-02T08:14:05.082Z,43.22
2022-12-02T08:16:32.084Z,41.03
2022-12-02T08:21:35.124Z,40.97
2022-12-02T08:24:02.339Z,40.90
2022-12-02T08:26:29.807Z,39.85
2022-12-02T08:28:56.851Z,40.28
2022-12-02T08:31:23.992Z,41.38
2022-12-02T08:33:51.709Z,38.58
2022-12-02T08:36:18.933Z,35.08
2022-12-02T08:38:45.928Z,35.58
2022-12-02T08:41:14.191Z,35.47
2022-12-02T08:43:41.585Z,36.55
2022-12-02T08:46:09.016Z,34.42
2022-12-02T08:48:36.164Z,32.80
2022-12-02T08:51:03.249Z,39.08
2022-12-02T08:53:31.800Z,38.53
2022-12-02T08:55:59.401Z,56.58
2022-12-02T09:01:07.904Z,36.80
2022-12-02T09:06:36.763Z,37.78
2022-12-02T09:09:11.130Z,35.30
2022-12-02T09:11:38.135Z,35.80
2022-12-02T09:14:08.044Z,35.40
2022-12-02T09:16:34.962Z,41.55
2022-12-02T09:19:01.907Z,36.70
2022-12-02T09:21:28.835Z,34.80
2022-12-02T09:23:55.852Z,32.30
2022-12-02T09:26:22.805Z,34.03
2022-12-02T09:28:49.713Z,34.72
2022-12-02T09:31:19.901Z,36.88
2022-12-02T09:33:47.156Z,35.03
2022-12-02T09:36:15.725Z,35.90
2022-12-02T09:38:42.921Z,34.15
2022-12-02T09:41:09.927Z,32.20
2022-12-02T09:43:37.387Z,34.08
2022-12-02T09:46:06.527Z,34.72
2022-12-02T09:48:33.513Z,34.88
2022-12-02T09:51:00.911Z,35.97
2022-12-02T09:53:38.669Z,37.45
2022-12-02T09:56:15.595Z,36.08
2022-12-02T09:58:43.154Z,40.22
2022-12-02T10:01:11.777Z,42.30
2022-12-02T10:03:39.198Z,38.63
2022-12-02T10:06:13.614Z,40.63
2022-12-02T10:08:40.735Z,39.90
2022-12-02T10:11:07.720Z,41.83
2022-12-02T10:13:39.956Z,42.38
2022-12-02T10:16:12.779Z,43.78
2022-12-02T10:18:45.021Z,44.00
2022-12-02T10:23:55.211Z,47.50
2022-12-02T10:26:22.423Z,42.50
2022-12-02T10:29:03.223Z,43.78
2022-12-02T10:31:30.243Z,42.00
2022-12-02T10:34:00.118Z,37.95
2022-12-02T11:17:13.374Z,31.83
2022-12-02T11:19:43.610Z,31.02
2022-12-02T11:22:50.647Z,31.05
2022-12-02T11:42:20.792Z,32.78
2022-12-02T11:49:04.899Z,31.05
2022-12-02T12:08:54.746Z,30.20
2022-12-02T12:14:04.996Z,30.75
2022-12-02T12:16:35.020Z,32.53
2022-12-02T12:19:28.502Z,33.22
2022-12-02T12:22:27.685Z,31.20
2022-12-02T12:33:37.911Z,32.58
2022-12-02T12:36:05.407Z,32.17
2022-12-02T12:58:37.378Z,57.90
2022-12-02T13:45:30.535Z,29.67
2022-12-02T13:48:04.937Z,29.80
2022-12-02T13:54:15.992Z,26.88
2022-12-02T13:56:42.971Z,28.13
2022-12-02T13:59:13.001Z,28.52
2022-12-02T14:01:43.771Z,26.40
2022-12-02T14:04:10.921Z,29.05
2022-12-02T14:06:38.117Z,26.85
2022-12-02T14:09:05.061Z,29.75
2022-12-02T14:11:32.343Z,29.20
2022-12-02T14:13:59.289Z,27.65
2022-12-02T14:16:26.247Z,29.30
2022-12-02T14:18:57.268Z,29.30
2022-12-02T14:21:25.671Z,28.60
2022-12-02T14:26:25.490Z,27.95
2022-12-02T14:28:52.485Z,28.77
2022-12-02T14:34:12.023Z,32.35
2022-12-02T14:40:27.457Z,29.08
2022-12-02T14:50:47.635Z,30.63
2022-12-02T14:53:26.346Z,31.10
2022-12-02T14:56:23.191Z,32.22
2022-12-02T14:58:51.345Z,28.25
2022-12-02T15:10:25.736Z,24.05
2022-12-02T15:13:04.729Z,29.63
2022-12-02T15:15:38.477Z,39.92
2022-12-02T15:21:59.766Z,47.10
2022-12-02T15:24:39.033Z,26.15
2022-12-02T15:27:11.833Z,25.25
2022-12-02T15:32:19.126Z,34.97
2022-12-02T15:34:47.426Z,36.90
2022-12-02T15:37:14.294Z,52.47
2022-12-02T15:39:41.169Z,33.80
2022-12-02T15:42:08.021Z,31.75
2022-12-02T15:47:27.757Z,25.42
2022-12-02T15:55:26.356Z,25.52
2022-12-02T15:57:58.445Z,25.13
2022-12-02T16:08:28.124Z,24.92
2022-12-02T16:11:03.796Z,29.95
2022-12-02T16:13:57.005Z,27.30
2022-12-02T16:22:13.557Z,30.75
2022-12-02T16:24:40.480Z,36.53
2022-12-02T16:27:10.117Z,35.63
2022-12-02T17:39:35.584Z,32.17
2022-12-02T17:52:17.615Z,31.23
2022-12-02T17:54:58.138Z,28.42
2022-12-02T18:17:20.395Z,28.17
2022-12-02T18:21:06.221Z,28.52
2022-12-02T18:28:19.689Z,31.00
2022-12-02T18:44:53.613Z,34.60
2022-12-02T19:29:10.247Z,25.63
